TimeCDT,TemperatureF,Dew PointF,Humidity,Sea Level PressureIn,VisibilityMPH,Wind Direction,Wind SpeedMPH,Gust SpeedMPH,PrecipitationIn,Events,Conditions,WindDirDegrees,DateUTC
12:55 AM,12.4,1.4,62,30.09,10.0,West,15.0,-,N/A,,Clear,280,2013-03-20 05:55:00
1:55 AM,11.1,0.5,62,30.09,10.0,West,17.3,-,N/A,,Clear,280,2013-03-20 06:55:00
2:55 AM,9.3,-2.2,60,30.10,10.0,West,15.0,-,N/A,,Clear,280,2013-03-20 07:55:00
3:55 AM,8.2,-3.6,58,30.10,10.0,West,15.0,-,N/A,,Clear,280,2013-03-20 08:55:00
4:55 AM,7.0,-4.4,60,30.11,10.0,WNW,15.0,-,N/A,,Clear,290,2013-03-20 09:55:00
5:55 AM,6.1,-4.9,61,30.12,10.0,WNW,15.0,-,N/A,,Clear,290,2013-03-20 10:55:00
6:55 AM,5.0,-5.8,61,30.13,10.0,West,13.8,-,N/A,,Partly Cloudy,280,2013-03-20 11:55:00
7:55 AM,5.0,-4.0,66,30.13,10.0,West,17.3,-,N/A,,Partly Cloudy,280,2013-03-20 12:55:00
8:55 AM,6.8,-2.2,67,30.13,10.0,West,18.4,-,N/A,,Partly Cloudy,280,2013-03-20 13:55:00
9:55 AM,10.4,-2.2,57,30.12,10.0,WNW,16.1,24.2,N/A,,Partly Cloudy,290,2013-03-20 14:55:00
10:55 AM,12.2,-0.4,57,30.11,10.0,West,17.3,-,N/A,,Partly Cloudy,270,2013-03-20 15:55:00
11:55 AM,14.0,1.4,57,30.11,10.0,West,17.3,25.3,N/A,,Scattered Clouds,280,2013-03-20 16:55:00
12:55 PM,15.8,3.2,58,30.10,10.0,WNW,20.7,25.3,N/A,,Scattered Clouds,300,2013-03-20 17:55:00
1:55 PM,17.6,3.2,53,30.09,10.0,West,15.0,24.2,N/A,,Scattered Clouds,280,2013-03-20 18:55:00
2:55 PM,19.4,3.2,49,30.07,10.0,West,19.6,24.2,N/A,,Mostly Cloudy,270,2013-03-20 19:55:00
3:55 PM,19.4,3.2,49,30.08,10.0,WNW,18.4,-,N/A,,Mostly Cloudy,290,2013-03-20 20:55:00
4:55 PM,17.6,1.4,49,30.09,10.0,NW,15.0,-,N/A,,Mostly Cloudy,310,2013-03-20 21:55:00
5:55 PM,17.6,1.4,49,30.10,10.0,NW,13.8,19.6,N/A,,Mostly Cloudy,310,2013-03-20 22:55:00
6:55 PM,15.8,1.4,53,30.11,10.0,WNW,12.7,-,N/A,,Mostly Cloudy,300,2013-03-20 23:55:00
7:55 PM,14.0,1.4,57,30.12,10.0,WNW,10.4,-,N/A,,Scattered Clouds,300,2013-03-21 00:55:00
8:55 PM,8.6,-0.4,67,30.12,10.0,West,6.9,-,N/A,,Partly Cloudy,280,2013-03-21 01:55:00
9:55 PM,5.0,-2.2,72,30.13,10.0,West,4.6,-,N/A,,Clear,280,2013-03-21 02:55:00
10:55 PM,3.2,-2.2,78,30.13,10.0,West,6.9,-,N/A,,Clear,280,2013-03-21 03:55:00
11:55 PM,3.2,-4.0,72,30.13,10.0,West,9.2,-,N/A,,Clear,280,2013-03-21 04:55:00